sensor_id;sensor_type;location;lat;lon;timestamp;pressure;altitude;pressure_sealevel;temperature;humidity
7170;BME280;3626;42.656;23.312;2022-10-13T00:00:00;95293.06;;;7.96;98.70
7170;BME280;3626;42.656;23.312;2022-10-13T00:00:07;95288.72;;;7.96;98.44
7170;BME280;3626;42.656;23.312;2022-10-13T00:00:15;95295.50;;;7.97;98.36
7170;BME280;3626;42.656;23.312;2022-10-13T00:00:21;95296.31;;;7.98;98.76
7170;BME280;3626;42.656;23.312;2022-10-13T00:00:26;95294.69;;;7.97;99.11
7170;BME280;3626;42.656;23.312;2022-10-13T00:00:32;95288.72;;;7.96;98.29
7170;BME280;3626;42.656;23.312;2022-10-13T00:00:38;95293.88;;;7.96;98.32
7170;BME280;3626;42.656;23.312;2022-10-13T00:00:45;95293.88;;;7.96;98.33
7170;BME280;3626;42.656;23.312;2022-10-13T00:00:51;95289.53;;;7.97;98.27
7170;BME280;3626;42.656;23.312;2022-10-13T00:00:57;95287.78;;;7.97;98.73
7170;BME280;3626;42.656;23.312;2022-10-13T00:01:07;95290.34;;;7.97;98.53
7170;BME280;3626;42.656;23.312;2022-10-13T00:01:15;95294.69;;;7.97;98.69
7170;BME280;3626;42.656;23.312;2022-10-13T00:01:22;95289.53;;;7.97;98.44
7170;BME280;3626;42.656;23.312;2022-10-13T00:01:28;95292.13;;;7.97;98.68
7170;BME280;3626;42.656;23.312;2022-10-13T00:01:34;95292.13;;;7.97;99.08
7170;BME280;3626;42.656;23.312;2022-10-13T00:01:40;95292.94;;;7.97;98.72
7170;BME280;3626;42.656;23.312;2022-10-13T00:01:47;95293.72;;;7.98;98.63
7170;BME280;3626;42.656;23.312;2022-10-13T00:01:52;95285.34;;;7.96;98.66
7170;BME280;3626;42.656;23.312;2022-10-13T00:01:58;95293.06;;;7.96;97.91
7170;BME280;3626;42.656;23.312;2022-10-13T00:02:04;95292.13;;;7.97;98.83
7170;BME280;3626;42.656;23.312;2022-10-13T00:02:10;95293.88;;;7.96;98.01
7170;BME280;3626;42.656;23.312;2022-10-13T00:02:15;95293.88;;;7.96;98.50
7170;BME280;3626;42.656;23.312;2022-10-13T00:02:21;95292.25;;;7.95;98.11
7170;BME280;3626;42.656;23.312;2022-10-13T00:02:27;95296.44;;;7.96;97.86
7170;BME280;3626;42.656;23.312;2022-10-13T00:02:33;95296.44;;;7.96;98.53
7170;BME280;3626;42.656;23.312;2022-10-13T00:02:38;95293.88;;;7.96;98.18
7170;BME280;3626;42.656;23.312;2022-10-13T00:02:44;95291.31;;;7.96;98.22
7170;BME280;3626;42.656;23.312;2022-10-13T00:02:50;95293.06;;;7.96;97.95
7170;BME280;3626;42.656;23.312;2022-10-13T00:02:58;95293.88;;;7.96;98.63
7170;BME280;3626;42.656;23.312;2022-10-13T00:03:04;95293.06;;;7.96;98.57
7170;BME280;3626;42.656;23.312;2022-10-13T00:03:10;95291.31;;;7.96;98.00
7170;BME280;3626;42.656;23.312;2022-10-13T00:03:16;95297.41;;;7.95;98.75
7170;BME280;3626;42.656;23.312;2022-10-13T00:03:24;95295.63;;;7.96;98.19
7170;BME280;3626;42.656;23.312;2022-10-13T00:03:29;95299.81;;;7.97;98.42
7170;BME280;3626;42.656;23.312;2022-10-13T00:03:36;95292.25;;;7.95;98.49
7170;BME280;3626;42.656;23.312;2022-10-13T00:03:42;95296.44;;;7.96;97.92
7170;BME280;3626;42.656;23.312;2022-10-13T00:03:50;95292.25;;;7.95;97.78
7170;BME280;3626;42.656;23.312;2022-10-13T00:03:56;95293.22;;;7.94;98.20
7170;BME280;3626;42.656;23.312;2022-10-13T00:04:02;95294.13;;;7.93;98.23
7170;BME280;3626;42.656;23.312;2022-10-13T00:04:08;95293.47;;;7.91;97.94
7170;BME280;3626;42.656;23.312;2022-10-13T00:04:14;95295.22;;;7.91;98.31
7170;BME280;3626;42.656;23.312;2022-10-13T00:04:19;95293.59;;;7.90;98.45
7170;BME280;3626;42.656;23.312;2022-10-13T00:04:26;95292.78;;;7.89;97.99
7170;BME280;3626;42.656;23.312;2022-10-13T00:04:32;95294.53;;;7.89;97.80
7170;BME280;3626;42.656;23.312;2022-10-13T00:04:38;95290.34;;;7.88;98.33
7170;BME280;3626;42.656;23.312;2022-10-13T00:04:43;95291.97;;;7.89;98.39
7170;BME280;3626;42.656;23.312;2022-10-13T00:04:49;95292.09;;;7.87;98.60
7170;BME280;3626;42.656;23.312;2022-10-13T00:04:55;95289.53;;;7.87;98.72
7170;BME280;3626;42.656;23.312;2022-10-13T00:05:02;95291.16;;;7.88;97.99
7170;BME280;3626;42.656;23.312;2022-10-13T00:05:08;95297.09;;;7.89;98.42
7170;BME280;3626;42.656;23.312;2022-10-13T00:05:14;95297.91;;;7.89;98.68
7170;BME280;3626;42.656;23.312;2022-10-13T00:05:20;95297.09;;;7.89;98.52
7170;BME280;3626;42.656;23.312;2022-10-13T00:05:26;95291.97;;;7.89;98.42
7170;BME280;3626;42.656;23.312;2022-10-13T00:05:32;95297.91;;;7.89;98.32
7170;BME280;3626;42.656;23.312;2022-10-13T00:05:39;95294.44;;;7.90;98.75
7170;BME280;3626;42.656;23.312;2022-10-13T00:05:47;95294.44;;;7.90;98.71
7170;BME280;3626;42.656;23.312;2022-10-13T00:05:53;95297.00;;;7.90;99.34
7170;BME280;3626;42.656;23.312;2022-10-13T00:05:59;95294.44;;;7.90;98.83
7170;BME280;3626;42.656;23.312;2022-10-13T00:06:05;95295.22;;;7.91;99.11
7170;BME280;3626;42.656;23.312;2022-10-13T00:06:14;95294.44;;;7.90;99.03
7170;BME280;3626;42.656;23.312;2022-10-13T00:06:22;95294.44;;;7.90;98.97
7170;BME280;3626;42.656;23.312;2022-10-13T00:06:28;95298.59;;;7.91;99.16
7170;BME280;3626;42.656;23.312;2022-10-13T00:06:33;95294.44;;;7.90;99.14
7170;BME280;3626;42.656;23.312;2022-10-13T00:06:39;95295.09;;;7.92;99.08
7170;BME280;3626;42.656;23.312;2022-10-13T00:06:45;95296.03;;;7.91;99.31
7170;BME280;3626;42.656;23.312;2022-10-13T00:06:51;95298.59;;;7.91;99.09
7170;BME280;3626;42.656;23.312;2022-10-13T00:06:56;95291.72;;;7.92;99.25
7170;BME280;3626;42.656;23.312;2022-10-13T00:07:02;95300.22;;;7.92;99.42
7170;BME280;3626;42.656;23.312;2022-10-13T00:07:08;95293.31;;;7.93;99.47
7170;BME280;3626;42.656;23.312;2022-10-13T00:07:13;95292.50;;;7.92;99.51
7170;BME280;3626;42.656;23.312;2022-10-13T00:07:19;95295.91;;;7.93;99.75
7170;BME280;3626;42.656;23.312;2022-10-13T00:07:25;95299.28;;;7.93;99.83
7170;BME280;3626;42.656;23.312;2022-10-13T00:07:31;95295.09;;;7.92;99.13
7170;BME280;3626;42.656;23.312;2022-10-13T00:07:36;95295.09;;;7.92;98.93
7170;BME280;3626;42.656;23.312;2022-10-13T00:07:43;95296.84;;;7.92;98.92
7170;BME280;3626;42.656;23.312;2022-10-13T00:07:49;95296.03;;;7.91;98.95
7170;BME280;3626;42.656;23.312;2022-10-13T00:07:55;95298.47;;;7.93;99.38
7170;BME280;3626;42.656;23.312;2022-10-13T00:08:01;95290.09;;;7.91;99.18
7170;BME280;3626;42.656;23.312;2022-10-13T00:08:07;95298.59;;;7.91;98.74
7170;BME280;3626;42.656;23.312;2022-10-13T00:08:14;95293.47;;;7.91;98.71
7170;BME280;3626;42.656;23.312;2022-10-13T00:08:23;95288.19;;;7.93;99.55
7170;BME280;3626;42.656;23.312;2022-10-13T00:08:30;95288.31;;;7.91;99.24
7170;BME280;3626;42.656;23.312;2022-10-13T00:08:37;95301.19;;;7.91;99.10
7170;BME280;3626;42.656;23.312;2022-10-13T00:08:44;95290.91;;;7.91;99.24
7170;BME280;3626;42.656;23.312;2022-10-13T00:08:50;95292.66;;;7.91;98.30
7170;BME280;3626;42.656;23.312;2022-10-13T00:08:58;95291.84;;;7.90;99.22
7170;BME280;3626;42.656;23.312;2022-10-13T00:09:04;95285.75;;;7.91;98.85
7170;BME280;3626;42.656;23.312;2022-10-13T00:09:10;95291.84;;;7.90;99.22
7170;BME280;3626;42.656;23.312;2022-10-13T00:09:16;95292.78;;;7.89;99.25
7170;BME280;3626;42.656;23.312;2022-10-13T00:09:22;95289.28;;;7.90;98.82
7170;BME280;3626;42.656;23.312;2022-10-13T00:09:27;95289.28;;;7.90;98.77
7170;BME280;3626;42.656;23.312;2022-10-13T00:09:33;95297.00;;;7.90;98.84
7170;BME280;3626;42.656;23.312;2022-10-13T00:09:39;95294.44;;;7.90;99.20
7170;BME280;3626;42.656;23.312;2022-10-13T00:09:45;95287.63;;;7.89;98.87
7170;BME280;3626;42.656;23.312;2022-10-13T00:09:50;95294.53;;;7.89;98.99
7170;BME280;3626;42.656;23.312;2022-10-13T00:09:56;95297.91;;;7.89;98.74
7170;BME280;3626;42.656;23.312;2022-10-13T00:10:02;95287.78;;;7.88;99.28
7170;BME280;3626;42.656;23.312;2022-10-13T00:10:08;95288.59;;;7.88;99.73
7170;BME280;3626;42.656;23.312;2022-10-13T00:10:16;95292.91;;;7.88;99.33
7170;BME280;3626;42.656;23.312;2022-10-13T00:10:22;95286.03;;;7.88;99.19
7170;BME280;3626;42.656;23.312;2022-10-13T00:10:28;95293.72;;;7.88;99.54
7170;BME280;3626;42.656;23.312;2022-10-13T00:10:35;95291.97;;;7.89;98.96
7170;BME280;3626;42.656;23.312;2022-10-13T00:10:41;95292.78;;;7.89;99.10
7170;BME280;3626;42.656;23.312;2022-10-13T00:10:49;95286.03;;;7.88;99.27
7170;BME280;3626;42.656;23.312;2022-10-13T00:10:55;95283.44;;;7.88;99.52
7170;BME280;3626;42.656;23.312;2022-10-13T00:11:01;95290.34;;;7.88;99.09
7170;BME280;3626;42.656;23.312;2022-10-13T00:11:17;95290.34;;;7.88;98.75
7170;BME280;3626;42.656;23.312;2022-10-13T00:11:24;95289.53;;;7.87;99.18
7170;BME280;3626;42.656;23.312;2022-10-13T00:11:30;95287.94;;;7.86;99.79
7170;BME280;3626;42.656;23.312;2022-10-13T00:11:36;95292.91;;;7.88;99.08
7170;BME280;3626;42.656;23.312;2022-10-13T00:11:42;95285.22;;;7.88;99.34
7170;BME280;3626;42.656;23.312;2022-10-13T00:11:48;95288.72;;;7.87;99.41
7170;BME280;3626;42.656;23.312;2022-10-13T00:11:56;95288.72;;;7.87;99.76
7170;BME280;3626;42.656;23.312;2022-10-13T00:12:02;95285.22;;;7.88;99.29
7170;BME280;3626;42.656;23.312;2022-10-13T00:12:07;95292.09;;;7.87;99.31
7170;BME280;3626;42.656;23.312;2022-10-13T00:12:13;95288.72;;;7.87;99.80
7170;BME280;3626;42.656;23.312;2022-10-13T00:12:19;95292.09;;;7.87;99.66
7170;BME280;3626;42.656;23.312;2022-10-13T00:12:25;95289.53;;;7.87;99.79
7170;BME280;3626;42.656;23.312;2022-10-13T00:12:33;95293.97;;;7.85;99.70
7170;BME280;3626;42.656;23.312;2022-10-13T00:12:39;95291.41;;;7.85;99.46
7170;BME280;3626;42.656;23.312;2022-10-13T00:12:44;95297.38;;;7.86;99.64
7170;BME280;3626;42.656;23.312;2022-10-13T00:12:50;95287.22;;;7.84;99.91
7170;BME280;3626;42.656;23.312;2022-10-13T00:12:56;95291.41;;;7.85;100.00
7170;BME280;3626;42.656;23.312;2022-10-13T00:13:02;95291.41;;;7.85;99.62
7170;BME280;3626;42.656;23.312;2022-10-13T00:13:08;95293.88;;;7.87;100.00
7170;BME280;3626;42.656;23.312;2022-10-13T00:13:14;95286.28;;;7.85;99.89
7170;BME280;3626;42.656;23.312;2022-10-13T00:13:20;95287.94;;;7.86;100.00
7170;BME280;3626;42.656;23.312;2022-10-13T00:13:27;95288.03;;;7.85;99.73
7170;BME280;3626;42.656;23.312;2022-10-13T00:13:33;95287.09;;;7.86;99.69
7170;BME280;3626;42.656;23.312;2022-10-13T00:13:39;95288.84;;;7.85;100.00
7170;BME280;3626;42.656;23.312;2022-10-13T00:13:46;95291.41;;;7.85;99.74
7170;BME280;3626;42.656;23.312;2022-10-13T00:13:54;95293.31;;;7.83;99.71
7170;BME280;3626;42.656;23.312;2022-10-13T00:14:02;95291.56;;;7.84;99.63
7170;BME280;3626;42.656;23.312;2022-10-13T00:14:08;95290.59;;;7.85;99.68
7170;BME280;3626;42.656;23.312;2022-10-13T00:14:14;95295.75;;;7.85;100.00
7170;BME280;3626;42.656;23.312;2022-10-13T00:14:20;95287.22;;;7.84;99.73
7170;BME280;3626;42.656;23.312;2022-10-13T00:14:26;95289.78;;;7.84;100.00
7170;BME280;3626;42.656;23.312;2022-10-13T00:14:31;95292.38;;;7.84;99.86
7170;BME280;3626;42.656;23.312;2022-10-13T00:14:37;95287.22;;;7.84;99.65
7170;BME280;3626;42.656;23.312;2022-10-13T00:14:43;95292.38;;;7.84;100.00
7170;BME280;3626;42.656;23.312;2022-10-13T00:14:49;95293.19;;;7.85;100.00
7170;BME280;3626;42.656;23.312;2022-10-13T00:14:56;95292.38;;;7.84;99.80
7170;BME280;3626;42.656;23.312;2022-10-13T00:15:03;95287.22;;;7.84;99.92
7170;BME280;3626;42.656;23.312;2022-10-13T00:15:09;95289.78;;;7.84;99.69
7170;BME280;3626;42.656;23.312;2022-10-13T00:15:15;95284.66;;;7.84;99.60
7170;BME280;3626;42.656;23.312;2022-10-13T00:15:21;95289.78;;;7.84;99.27
7170;BME280;3626;42.656;23.312;2022-10-13T00:15:30;95288.84;;;7.85;99.85
7170;BME280;3626;42.656;23.312;2022-10-13T00:15:37;95291.56;;;7.84;99.68
7170;BME280;3626;42.656;23.312;2022-10-13T00:15:44;95290.59;;;7.85;99.74
7170;BME280;3626;42.656;23.312;2022-10-13T00:15:50;95289.78;;;7.84;100.00
7170;BME280;3626;42.656;23.312;2022-10-13T00:15:56;95288.84;;;7.85;99.42
7170;BME280;3626;42.656;23.312;2022-10-13T00:16:03;95292.22;;;7.86;100.00
7170;BME280;3626;42.656;23.312;2022-10-13T00:16:10;95287.94;;;7.86;99.94
7170;BME280;3626;42.656;23.312;2022-10-13T00:16:17;95288.84;;;7.85;99.29
7170;BME280;3626;42.656;23.312;2022-10-13T00:16:25;95293.06;;;7.86;100.00
7170;BME280;3626;42.656;23.312;2022-10-13T00:16:31;95286.28;;;7.85;99.61
7170;BME280;3626;42.656;23.312;2022-10-13T00:16:37;95288.84;;;7.85;99.43
7170;BME280;3626;42.656;23.312;2022-10-13T00:16:44;95287.22;;;7.84;99.61
7170;BME280;3626;42.656;23.312;2022-10-13T00:16:49;95289.78;;;7.84;100.00
7170;BME280;3626;42.656;23.312;2022-10-13T00:16:55;95282.09;;;7.84;99.41
7170;BME280;3626;42.656;23.312;2022-10-13T00:17:01;95286.28;;;7.85;99.33
7170;BME280;3626;42.656;23.312;2022-10-13T00:17:06;95289.78;;;7.84;100.00
7170;BME280;3626;42.656;23.312;2022-10-13T00:17:12;95284.66;;;7.84;99.88
7170;BME280;3626;42.656;23.312;2022-10-13T00:17:18;95283.84;;;7.84;99.99
7170;BME280;3626;42.656;23.312;2022-10-13T00:17:24;95290.59;;;7.85;99.71
7170;BME280;3626;42.656;23.312;2022-10-13T00:17:29;95290.59;;;7.85;100.00
7170;BME280;3626;42.656;23.312;2022-10-13T00:17:35;95289.78;;;7.84;100.00
7170;BME280;3626;42.656;23.312;2022-10-13T00:17:41;95288.03;;;7.85;100.00
7170;BME280;3626;42.656;23.312;2022-10-13T00:17:47;95297.50;;;7.84;100.00
7170;BME280;3626;42.656;23.312;2022-10-13T00:17:54;95289.00;;;7.84;100.00
7170;BME280;3626;42.656;23.312;2022-10-13T00:17:59;95289.94;;;7.83;99.92
7170;BME280;3626;42.656;23.312;2022-10-13T00:18:05;95289.94;;;7.83;99.99
7170;BME280;3626;42.656;23.312;2022-10-13T00:18:12;95290.88;;;7.82;99.89
7170;BME280;3626;42.656;23.312;2022-10-13T00:18:18;95291.00;;;7.80;100.00
7170;BME280;3626;42.656;23.312;2022-10-13T00:18:23;95292.91;;;7.78;99.42
7170;BME280;3626;42.656;23.312;2022-10-13T00:18:29;95286.97;;;7.78;99.71
7170;BME280;3626;42.656;23.312;2022-10-13T00:18:35;95289.66;;;7.76;99.91
7170;BME280;3626;42.656;23.312;2022-10-13T00:18:41;95287.88;;;7.76;100.00
7170;BME280;3626;42.656;23.312;2022-10-13T00:18:47;95282.75;;;7.76;100.00
7170;BME280;3626;42.656;23.312;2022-10-13T00:18:54;95283.69;;;7.75;100.00
7170;BME280;3626;42.656;23.312;2022-10-13T00:19:00;95285.31;;;7.76;100.00
7170;BME280;3626;42.656;23.312;2022-10-13T00:19:05;95287.88;;;7.76;100.00
7170;BME280;3626;42.656;23.312;2022-10-13T00:19:12;95277.59;;;7.76;99.91
7170;BME280;3626;42.656;23.312;2022-10-13T00:19:18;95286.13;;;7.77;100.00
7170;BME280;3626;42.656;23.312;2022-10-13T00:19:24;95284.41;;;7.78;100.00
7170;BME280;3626;42.656;23.312;2022-10-13T00:19:29;95284.50;;;7.76;100.00
7170;BME280;3626;42.656;23.312;2022-10-13T00:19:36;95282.88;;;7.75;100.00
7170;BME280;3626;42.656;23.312;2022-10-13T00:19:41;95284.50;;;7.76;100.00
7170;BME280;3626;42.656;23.312;2022-10-13T00:19:47;95286.28;;;7.75;100.00
7170;BME280;3626;42.656;23.312;2022-10-13T00:19:53;95285.47;;;7.75;100.00
7170;BME280;3626;42.656;23.312;2022-10-13T00:19:58;95283.69;;;7.75;100.00
7170;BME280;3626;42.656;23.312;2022-10-13T00:20:05;95290.44;;;7.76;100.00
7170;BME280;3626;42.656;23.312;2022-10-13T00:20:11;95277.59;;;7.76;100.00
7170;BME280;3626;42.656;23.312;2022-10-13T00:20:17;95291.25;;;7.77;100.00
7170;BME280;3626;42.656;23.312;2022-10-13T00:20:23;95286.13;;;7.77;100.00
7170;BME280;3626;42.656;23.312;2022-10-13T00:20:28;95286.13;;;7.77;100.00
7170;BME280;3626;42.656;23.312;2022-10-13T00:20:35;95280.97;;;7.77;100.00
7170;BME280;3626;42.656;23.312;2022-10-13T00:20:46;95281.81;;;7.78;100.00
7170;BME280;3626;42.656;23.312;2022-10-13T00:20:53;95285.19;;;7.78;100.00
7170;BME280;3626;42.656;23.312;2022-10-13T00:20:59;95284.41;;;7.78;99.89
7170;BME280;3626;42.656;23.312;2022-10-13T00:21:06;95285.19;;;7.78;100.00
7170;BME280;3626;42.656;23.312;2022-10-13T00:21:14;95288.59;;;7.79;99.89
7170;BME280;3626;42.656;23.312;2022-10-13T00:21:22;95281.69;;;7.79;100.00
7170;BME280;3626;42.656;23.312;2022-10-13T00:21:28;95285.06;;;7.80;100.00
7170;BME280;3626;42.656;23.312;2022-10-13T00:21:34;95282.50;;;7.80;100.00
7170;BME280;3626;42.656;23.312;2022-10-13T00:21:40;95285.06;;;7.80;100.00
7170;BME280;3626;42.656;23.312;2022-10-13T00:21:45;95282.50;;;7.80;100.00
7170;BME280;3626;42.656;23.312;2022-10-13T00:21:51;95282.50;;;7.80;100.00
7170;BME280;3626;42.656;23.312;2022-10-13T00:21:58;95285.88;;;7.80;100.00
7170;BME280;3626;42.656;23.312;2022-10-13T00:22:04;95282.50;;;7.80;99.96
7170;BME280;3626;42.656;23.312;2022-10-13T00:22:09;95285.06;;;7.80;100.00
7170;BME280;3626;42.656;23.312;2022-10-13T00:22:15;95280.88;;;7.79;100.00
7170;BME280;3626;42.656;23.312;2022-10-13T00:22:21;95287.63;;;7.80;100.00
7170;BME280;3626;42.656;23.312;2022-10-13T00:22:27;95286.00;;;7.79;99.78
7170;BME280;3626;42.656;23.312;2022-10-13T00:22:32;95281.69;;;7.79;100.00
7170;BME280;3626;42.656;23.312;2022-10-13T00:22:38;95285.19;;;7.78;100.00
7170;BME280;3626;42.656;23.312;2022-10-13T00:22:44;95284.25;;;7.79;100.00
7170;BME280;3626;42.656;23.312;2022-10-13T00:22:50;95288.59;;;7.79;100.00
7170;BME280;3626;42.656;23.312;2022-10-13T00:22:55;95280.88;;;7.79;100.00
7170;BME280;3626;42.656;23.312;2022-10-13T00:23:01;95279.13;;;7.79;100.00
7170;BME280;3626;42.656;23.312;2022-10-13T00:23:07;95288.44;;;7.80;99.96
7170;BME280;3626;42.656;23.312;2022-10-13T00:23:13;95285.88;;;7.80;100.00
7170;BME280;3626;42.656;23.312;2022-10-13T00:23:19;95281.53;;;7.81;100.00
7170;BME280;3626;42.656;23.312;2022-10-13T00:23:25;95290.06;;;7.81;100.00
7170;BME280;3626;42.656;23.312;2022-10-13T00:23:32;95281.53;;;7.81;100.00
7170;BME280;3626;42.656;23.312;2022-10-13T00:23:39;95279.78;;;7.81;100.00
7170;BME280;3626;42.656;23.312;2022-10-13T00:23:45;95282.34;;;7.81;100.00
7170;BME280;3626;42.656;23.312;2022-10-13T00:23:53;95277.34;;;7.80;100.00
7170;BME280;3626;42.656;23.312;2022-10-13T00:23:59;95284.09;;;7.81;100.00
7170;BME280;3626;42.656;23.312;2022-10-13T00:24:05;95282.50;;;7.80;100.00
7170;BME280;3626;42.656;23.312;2022-10-13T00:24:13;95273.97;;;7.79;100.00
7170;BME280;3626;42.656;23.312;2022-10-13T00:24:19;95281.69;;;7.79;100.00
7170;BME280;3626;42.656;23.312;2022-10-13T00:24:25;95276.53;;;7.79;99.97
7170;BME280;3626;42.656;23.312;2022-10-13T00:24:31;95279.91;;;7.80;100.00
7170;BME280;3626;42.656;23.312;2022-10-13T00:24:36;95284.25;;;7.79;100.00
7170;BME280;3626;42.656;23.312;2022-10-13T00:24:42;95281.69;;;7.79;100.00
7170;BME280;3626;42.656;23.312;2022-10-13T00:24:49;95281.81;;;7.78;100.00
7170;BME280;3626;42.656;23.312;2022-10-13T00:24:55;95278.41;;;7.77;100.00
7170;BME280;3626;42.656;23.312;2022-10-13T00:25:02;95274.94;;;7.78;100.00
7170;BME280;3626;42.656;23.312;2022-10-13T00:25:08;95280.06;;;7.78;100.00
7170;BME280;3626;42.656;23.312;2022-10-13T00:25:15;95278.41;;;7.77;100.00
7170;BME280;3626;42.656;23.312;2022-10-13T00:25:21;95277.59;;;7.76;100.00
7170;BME280;3626;42.656;23.312;2022-10-13T00:25:27;95279.25;;;7.78;100.00
7170;BME280;3626;42.656;23.312;2022-10-13T00:25:33;95281.81;;;7.78;100.00
7170;BME280;3626;42.656;23.312;2022-10-13T00:25:42;95276.00;;;7.75;100.00
7170;BME280;3626;42.656;23.312;2022-10-13T00:25:50;95280.56;;;7.72;99.93
7170;BME280;3626;42.656;23.312;2022-10-13T00:25:56;95282.59;;;7.68;100.00
7170;BME280;3626;42.656;23.312;2022-10-13T00:26:04;95270.84;;;7.66;100.00
7170;BME280;3626;42.656;23.312;2022-10-13T00:26:13;95280.56;;;7.62;99.56
7170;BME280;3626;42.656;23.312;2022-10-13T00:26:21;95286.25;;;7.56;99.81
7170;BME280;3626;42.656;23.312;2022-10-13T00:26:28;95279.44;;;7.55;100.00
7170;BME280;3626;42.656;23.312;2022-10-13T00:26:33;95280.56;;;7.53;99.91
7170;BME280;3626;42.656;23.312;2022-10-13T00:26:39;95273.75;;;7.51;99.62
7170;BME280;3626;42.656;23.312;2022-10-13T00:26:45;95275.66;;;7.49;100.00
7170;BME280;3626;42.656;23.312;2022-10-13T00:26:51;95279.19;;;7.48;100.00
7170;BME280;3626;42.656;23.312;2022-10-13T00:26:57;95279.19;;;7.48;100.00
7170;BME280;3626;42.656;23.312;2022-10-13T00:27:02;95273.25;;;7.48;100.00
7170;BME280;3626;42.656;23.312;2022-10-13T00:27:08;95273.09;;;7.49;99.96
7170;BME280;3626;42.656;23.312;2022-10-13T00:27:14;95274.84;;;7.49;100.00
7170;BME280;3626;42.656;23.312;2022-10-13T00:27:19;95276.47;;;7.50;100.00
7170;BME280;3626;42.656;23.312;2022-10-13T00:27:25;95274.72;;;7.50;100.00
7170;BME280;3626;42.656;23.312;2022-10-13T00:27:31;95275.53;;;7.51;100.00
7170;BME280;3626;42.656;23.312;2022-10-13T00:27:37;95279.75;;;7.52;100.00
7170;BME280;3626;42.656;23.312;2022-10-13T00:27:42;95270.28;;;7.53;99.99
7170;BME280;3626;42.656;23.312;2022-10-13T00:27:48;95271.91;;;7.54;100.00
7170;BME280;3626;42.656;23.312;2022-10-13T00:27:54;95282.97;;;7.54;100.00
7170;BME280;3626;42.656;23.312;2022-10-13T00:28:00;95277.84;;;7.54;100.00
7170;BME280;3626;42.656;23.312;2022-10-13T00:28:05;95278.66;;;7.55;100.00
7170;BME280;3626;42.656;23.312;2022-10-13T00:28:13;95271.63;;;7.57;100.00
7170;BME280;3626;42.656;23.312;2022-10-13T00:28:19;95276.78;;;7.57;99.93
7170;BME280;3626;42.656;23.312;2022-10-13T00:28:25;95270.69;;;7.58;100.00
7170;BME280;3626;42.656;23.312;2022-10-13T00:28:30;95279.19;;;7.58;100.00
7170;BME280;3626;42.656;23.312;2022-10-13T00:28:38;95274.88;;;7.59;99.78
7170;BME280;3626;42.656;23.312;2022-10-13T00:28:44;95275.69;;;7.59;100.00
7170;BME280;3626;42.656;23.312;2022-10-13T00:28:49;95285.84;;;7.61;100.00
7170;BME280;3626;42.656;23.312;2022-10-13T00:28:55;95277.19;;;7.62;100.00
7170;BME280;3626;42.656;23.312;2022-10-13T00:29:01;95279.06;;;7.60;99.97
7170;BME280;3626;42.656;23.312;2022-10-13T00:29:07;95282.31;;;7.62;100.00
7170;BME280;3626;42.656;23.312;2022-10-13T00:29:13;95278.94;;;7.61;100.00
7170;BME280;3626;42.656;23.312;2022-10-13T00:29:19;95280.56;;;7.62;100.00
7170;BME280;3626;42.656;23.312;2022-10-13T00:29:25;95280.41;;;7.64;99.83
7170;BME280;3626;42.656;23.312;2022-10-13T00:29:31;95276.38;;;7.61;100.00
7170;BME280;3626;42.656;23.312;2022-10-13T00:29:37;95281.50;;;7.61;99.94
7170;BME280;3626;42.656;23.312;2022-10-13T00:29:43;95278.00;;;7.62;99.90
7170;BME280;3626;42.656;23.312;2022-10-13T00:29:49;95278.00;;;7.62;100.00
7170;BME280;3626;42.656;23.312;2022-10-13T00:29:54;95279.63;;;7.63;100.00
7170;BME280;3626;42.656;23.312;2022-10-13T00:30:01;95273.66;;;7.63;100.00
7170;BME280;3626;42.656;23.312;2022-10-13T00:30:07;95271.91;;;7.63;100.00
7170;BME280;3626;42.656;23.312;2022-10-13T00:30:13;95283.00;;;7.64;100.00
7170;BME280;3626;42.656;23.312;2022-10-13T00:30:19;95272.72;;;7.64;100.00
7170;BME280;3626;42.656;23.312;2022-10-13T00:30:25;95270.16;;;7.64;100.00
7170;BME280;3626;42.656;23.312;2022-10-13T00:30:32;95281.22;;;7.64;99.97
7170;BME280;3626;42.656;23.312;2022-10-13T00:30:39;95275.16;;;7.65;100.00
7170;BME280;3626;42.656;23.312;2022-10-13T00:30:45;95275.16;;;7.65;100.00
7170;BME280;3626;42.656;23.312;2022-10-13T00:30:52;95287.06;;;7.66;99.96
7170;BME280;3626;42.656;23.312;2022-10-13T00:30:58;95278.56;;;7.66;100.00
7170;BME280;3626;42.656;23.312;2022-10-13T00:31:13;95279.22;;;7.68;100.00
7170;BME280;3626;42.656;23.312;2022-10-13T00:31:20;95281.78;;;7.68;100.00
7170;BME280;3626;42.656;23.312;2022-10-13T00:31:28;95274.06;;;7.68;100.00
7170;BME280;3626;42.656;23.312;2022-10-13T00:31:34;95271.50;;;7.68;100.00
7170;BME280;3626;42.656;23.312;2022-10-13T00:31:40;95277.44;;;7.68;100.00
7170;BME280;3626;42.656;23.312;2022-10-13T00:31:46;95278.28;;;7.69;100.00
7170;BME280;3626;42.656;23.312;2022-10-13T00:31:52;95280.88;;;7.69;100.00
7170;BME280;3626;42.656;23.312;2022-10-13T00:31:58;95270.59;;;7.69;100.00
7170;BME280;3626;42.656;23.312;2022-10-13T00:32:04;95276.53;;;7.69;100.00
7170;BME280;3626;42.656;23.312;2022-10-13T00:32:10;95276.53;;;7.69;100.00
7170;BME280;3626;42.656;23.312;2022-10-13T00:32:16;95282.59;;;7.68;100.00
7170;BME280;3626;42.656;23.312;2022-10-13T00:32:22;95278.28;;;7.69;100.00
7170;BME280;3626;42.656;23.312;2022-10-13T00:32:28;95275.72;;;7.69;99.90
7170;BME280;3626;42.656;23.312;2022-10-13T00:32:34;95275.72;;;7.69;100.00
7170;BME280;3626;42.656;23.312;2022-10-13T00:32:40;95275.72;;;7.69;100.00
7170;BME280;3626;42.656;23.312;2022-10-13T00:32:45;95275.72;;;7.69;100.00
7170;BME280;3626;42.656;23.312;2022-10-13T00:32:51;95274.88;;;7.68;100.00
7170;BME280;3626;42.656;23.312;2022-10-13T00:32:57;95276.53;;;7.69;100.00
7170;BME280;3626;42.656;23.312;2022-10-13T00:33:03;95273.16;;;7.69;100.00
7170;BME280;3626;42.656;23.312;2022-10-13T00:33:09;95277.44;;;7.68;100.00
7170;BME280;3626;42.656;23.312;2022-10-13T00:33:15;95271.50;;;7.68;99.81
7170;BME280;3626;42.656;23.312;2022-10-13T00:33:22;95273.16;;;7.69;100.00
7170;BME280;3626;42.656;23.312;2022-10-13T00:33:28;95275.72;;;7.69;100.00
7170;BME280;3626;42.656;23.312;2022-10-13T00:33:33;95274.88;;;7.68;100.00
7170;BME280;3626;42.656;23.312;2022-10-13T00:33:39;95279.34;;;7.66;100.00
7170;BME280;3626;42.656;23.312;2022-10-13T00:33:45;95269.22;;;7.65;100.00
7170;BME280;3626;42.656;23.312;2022-10-13T00:33:51;95273.53;;;7.64;100.00
7170;BME280;3626;42.656;23.312;2022-10-13T00:33:58;95271.78;;;7.65;100.00
7170;BME280;3626;42.656;23.312;2022-10-13T00:34:04;95273.53;;;7.64;100.00